Main page
METAR-TAF:

METAR-TAF

Airports :

Majuro, Majuro Atoll, Marshall Islands

Marshall Islands International Airport

latitude: 07-04N, longitude: 171-17E, elevation: 2 m

Current weather observation

The report was made 27 minutes ago, at 23:55 UTC
Wind 9 kt from the East/Northeast
Temperature 29°C
Humidity 74%
Pressure 1009 hPa
Visibility: 24.1 km
Few clouds at a height of 1500 ft
Scattered clouds at a height of 5000 ft
Broken clouds at a height of 30000 ft

METAR: PKMJ 192355Z 06009KT 15SM FEW015 SCT050 BKN300 29/24 A2980

Time: 12:22 (00:22 UTC)

Forecast

The report was made 42 minutes ago, at 23:40 UTC
Forecast valid from 20 at 00 UTC to 20 at 24 UTC
Wind 11 kt from the East
Visibility: 10 km
Few clouds at a height of 1200 ft
Scattered clouds at a height of 5000 ft
Broken clouds at a height of 12000 ft
showers in vicinity

TAF: PKMJ 192340Z 2000/2024 09011KT P6SM VCSH FEW012 SCT050 BKN120

Weather observations and forecasts of more than 4000 airports (METAR and TAF reports).

The available stations are represented by yellow and red dots on the map.

Hover mouse over dot to see the name of the station.

Then click to see weather observations and forecasts.

To change the map : click on the green buttons with a black cross to zoom in, on the green button with a dash to zoom out, or on the green arrows for adjacent maps.


METAR-TAF: